createdAt,value
2023-05-17T00:00:35.672Z,100967.28
2023-05-17T00:05:32.173Z,100969.78
2023-05-17T00:10:28.617Z,100968.00
2023-05-17T00:15:25.316Z,100958.44
2023-05-17T00:20:21.872Z,100976.31
2023-05-17T00:25:18.304Z,100973.50
2023-05-17T00:30:15.162Z,100973.47
2023-05-17T00:35:11.638Z,100971.00
2023-05-17T00:40:09.182Z,100973.75
2023-05-17T00:45:06.546Z,100967.06
2023-05-17T00:50:03.766Z,100966.03
2023-05-17T00:55:00.478Z,100976.59
2023-05-17T00:59:57.400Z,100982.31
2023-05-17T01:04:54.326Z,100971.25
2023-05-17T01:09:50.994Z,100978.84
2023-05-17T01:14:52.581Z,100980.06
2023-05-17T01:20:01.004Z,100988.09
2023-05-17T01:25:18.717Z,100991.94
2023-05-17T01:30:18.138Z,100991.59
2023-05-17T01:35:16.131Z,100989.88
2023-05-17T01:40:13.172Z,100994.13
2023-05-17T01:45:22.854Z,101000.22
2023-05-17T01:50:25.357Z,101002.84
2023-05-17T01:55:26.750Z,101003.53
2023-05-17T02:00:25.722Z,101016.78
2023-05-17T02:05:22.285Z,101020.22
2023-05-17T02:10:18.779Z,101022.06
2023-05-17T02:15:16.643Z,101021.81
2023-05-17T02:20:13.080Z,101025.81
2023-05-17T02:25:09.845Z,101025.00
2023-05-17T02:30:07.557Z,101033.72
2023-05-17T02:35:04.341Z,101040.81
2023-05-17T02:40:00.807Z,101046.31
2023-05-17T02:44:58.031Z,101043.91
2023-05-17T02:49:54.508Z,101045.03
2023-05-17T02:54:51.639Z,101048.59
2023-05-17T02:59:48.251Z,101047.91
2023-05-17T03:04:44.862Z,101050.69
2023-05-17T03:09:42.861Z,101059.34
2023-05-17T03:14:39.346Z,101058.44
2023-05-17T03:19:35.900Z,101062.03
2023-05-17T03:24:32.403Z,101065.78
2023-05-17T03:29:28.841Z,101068.47
2023-05-17T03:34:25.455Z,101071.25
2023-05-17T03:39:22.181Z,101081.78
2023-05-17T03:44:18.631Z,101080.31
2023-05-17T03:49:15.092Z,101084.53
2023-05-17T03:54:11.646Z,101094.13
2023-05-17T03:59:08.097Z,101101.13
2023-05-17T04:04:05.986Z,101112.16
2023-05-17T04:09:02.688Z,101105.41
2023-05-17T04:13:59.228Z,101108.94
2023-05-17T04:18:56.085Z,101116.84
2023-05-17T04:23:52.579Z,101117.72
2023-05-17T04:28:48.957Z,101126.38
2023-05-17T04:33:45.768Z,101135.81
2023-05-17T04:38:42.616Z,101135.84
2023-05-17T04:43:39.249Z,101149.16
2023-05-17T04:48:36.006Z,101170.22
2023-05-17T04:53:32.630Z,101165.56
2023-05-17T04:58:29.009Z,101175.41
2023-05-17T05:03:26.555Z,101182.22
2023-05-17T05:08:23.039Z,101187.47
2023-05-17T05:13:19.477Z,101193.56
2023-05-17T05:18:15.944Z,101205.31
2023-05-17T05:23:12.333Z,101211.31
2023-05-17T05:28:08.786Z,101220.22
2023-05-17T05:33:05.358Z,101226.78
2023-05-17T05:38:01.780Z,101238.34
2023-05-17T05:42:58.246Z,101245.75
2023-05-17T05:47:54.803Z,101245.31
2023-05-17T05:52:51.331Z,101249.03
2023-05-17T05:57:47.754Z,101249.81
2023-05-17T06:02:44.215Z,101254.63
2023-05-17T06:07:40.623Z,101256.06
2023-05-17T06:12:37.029Z,101265.97
2023-05-17T06:17:33.526Z,101257.28
2023-05-17T06:22:29.997Z,101260.25
2023-05-17T06:27:26.709Z,101263.06
2023-05-17T06:32:23.115Z,101266.31
2023-05-17T06:37:19.530Z,101263.13
2023-05-17T06:42:15.956Z,101264.91
2023-05-17T06:47:12.427Z,101259.91
2023-05-17T06:52:08.827Z,101271.66
2023-05-17T06:57:05.673Z,101279.53
2023-05-17T07:02:02.260Z,101272.72
2023-05-17T07:06:58.702Z,101281.16
2023-05-17T07:11:55.167Z,101281.94
2023-05-17T07:16:51.557Z,101286.66
2023-05-17T07:21:48.030Z,101298.75
2023-05-17T07:26:45.904Z,101285.56
2023-05-17T07:31:42.308Z,101297.34
2023-05-17T07:36:38.945Z,101310.97
2023-05-17T07:41:36.418Z,101320.88
2023-05-17T07:46:33.137Z,101332.66
2023-05-17T07:51:29.615Z,101329.88
2023-05-17T07:56:26.022Z,101332.44
2023-05-17T08:01:23.694Z,101338.47
2023-05-17T08:06:20.141Z,101344.53
2023-05-17T08:11:16.867Z,101327.13
2023-05-17T08:16:14.815Z,101348.44
2023-05-17T08:21:11.862Z,101356.78
2023-05-17T08:26:08.248Z,101353.75
2023-05-17T08:31:04.957Z,101355.84
2023-05-17T08:36:02.942Z,101365.31
2023-05-17T08:40:59.978Z,101370.38
2023-05-17T08:45:58.163Z,101371.09
2023-05-17T08:50:56.462Z,101363.94
2023-05-17T08:55:58.035Z,101369.50
2023-05-17T09:00:56.122Z,101381.56
2023-05-17T09:05:53.700Z,101382.25
2023-05-17T09:10:50.703Z,101378.25
2023-05-17T09:15:48.941Z,101373.13
2023-05-17T09:20:51.492Z,101379.72
2023-05-17T09:25:49.345Z,101361.38
2023-05-17T09:30:49.347Z,101366.84
2023-05-17T09:35:45.853Z,101366.19
2023-05-17T09:40:43.975Z,101377.66
2023-05-17T09:45:41.216Z,101387.28
2023-05-17T09:50:37.634Z,101383.56
2023-05-17T09:55:34.099Z,101378.47
2023-05-17T10:00:32.231Z,101359.78
2023-05-17T10:05:29.318Z,101365.34
2023-05-17T10:10:27.681Z,101378.06
2023-05-17T10:15:25.751Z,101374.09
2023-05-17T10:20:22.271Z,101361.91
2023-05-17T10:25:19.310Z,101381.97
2023-05-17T10:30:18.143Z,101372.97
2023-05-17T10:35:16.609Z,101363.59
2023-05-17T10:40:13.939Z,101360.03
2023-05-17T10:45:12.595Z,101367.81
2023-05-17T10:50:15.872Z,101367.72
2023-05-17T10:55:12.449Z,101366.94
2023-05-17T11:00:12.290Z,101368.03
2023-05-17T11:05:23.821Z,101354.66
2023-05-17T11:10:20.365Z,101352.16
2023-05-17T11:15:17.669Z,101355.31
2023-05-17T11:20:26.826Z,101362.56
2023-05-17T11:25:23.603Z,101363.94
2023-05-17T11:30:27.113Z,101358.72
2023-05-17T11:35:26.819Z,101353.97
2023-05-17T11:40:28.319Z,101360.53
2023-05-17T11:45:25.136Z,101362.22
2023-05-17T11:50:21.624Z,101360.63
2023-05-17T11:55:18.252Z,101367.75
2023-05-17T12:00:16.643Z,101356.72
2023-05-17T12:05:19.629Z,101353.59
2023-05-17T12:10:16.452Z,101361.50
2023-05-17T12:15:19.011Z,101349.44
2023-05-17T12:20:16.054Z,101340.25
2023-05-17T12:25:19.940Z,101338.44
2023-05-17T12:30:17.159Z,101335.91
2023-05-17T12:35:13.656Z,101338.94
2023-05-17T12:40:12.064Z,101341.06
2023-05-17T12:45:12.824Z,101337.56
2023-05-17T12:50:10.118Z,101332.38
2023-05-17T12:55:12.657Z,101341.56
2023-05-17T13:00:09.663Z,101361.38
2023-05-17T13:05:16.744Z,101370.88
2023-05-17T13:10:28.281Z,101372.91
2023-05-17T13:15:32.574Z,101364.41
2023-05-17T13:20:29.419Z,101360.38
2023-05-17T13:25:26.137Z,101360.22
2023-05-17T13:30:22.581Z,101367.28
2023-05-17T13:35:19.004Z,101371.03
2023-05-17T13:40:15.656Z,101359.72
2023-05-17T13:45:13.601Z,101363.09
2023-05-17T13:50:10.592Z,101359.66
2023-05-17T13:55:07.757Z,101356.22
2023-05-17T14:00:12.560Z,101367.19
2023-05-17T14:05:09.882Z,101363.00
2023-05-17T14:10:08.032Z,101353.25
2023-05-17T14:15:04.924Z,101363.41
2023-05-17T14:20:01.451Z,101362.88
2023-05-17T14:24:57.938Z,101360.34
2023-05-17T14:29:54.534Z,101349.00
2023-05-17T14:34:50.979Z,101345.91
2023-05-17T14:40:05.325Z,101352.38
2023-05-17T14:45:03.340Z,101358.41
2023-05-17T14:49:59.835Z,101371.66
2023-05-17T14:54:56.663Z,101372.78
2023-05-17T14:59:53.100Z,101367.03
2023-05-17T15:04:49.822Z,101365.81
2023-05-17T15:09:46.623Z,101367.56
2023-05-17T15:14:44.021Z,101368.84
2023-05-17T15:19:41.224Z,101363.28
2023-05-17T15:24:39.785Z,101376.19
2023-05-17T15:29:38.827Z,101370.53
2023-05-17T15:34:35.369Z,101367.88
2023-05-17T15:39:32.010Z,101367.75
2023-05-17T15:44:28.451Z,101357.53
2023-05-17T15:49:25.924Z,101359.56
2023-05-17T15:54:22.415Z,101354.13
2023-05-17T15:59:18.853Z,101353.00
2023-05-17T16:04:15.799Z,101355.25
2023-05-17T16:09:14.748Z,101347.13
2023-05-17T16:14:11.656Z,101349.28
2023-05-17T16:19:08.133Z,101362.81
2023-05-17T16:24:06.517Z,101360.25
2023-05-17T16:29:02.950Z,101358.06
2023-05-17T16:33:59.397Z,101362.59
2023-05-17T16:38:55.888Z,101356.19
2023-05-17T16:43:52.353Z,101349.28
2023-05-17T16:48:48.745Z,101352.81
2023-05-17T16:53:45.237Z,101351.28
2023-05-17T16:58:41.619Z,101359.28
2023-05-17T17:03:38.163Z,101368.63
2023-05-17T17:08:34.605Z,101367.63
2023-05-17T17:13:31.325Z,101361.50
2023-05-17T17:18:29.020Z,101368.06
2023-05-17T17:23:25.650Z,101378.66
2023-05-17T17:28:22.060Z,101363.69
2023-05-17T17:33:18.539Z,101372.19
2023-05-17T17:38:15.142Z,101391.19
2023-05-17T17:43:11.571Z,101385.84
2023-05-17T17:48:08.107Z,101384.69
2023-05-17T17:53:04.592Z,101393.41
2023-05-17T17:58:01.241Z,101393.72
2023-05-17T18:02:57.844Z,101408.22
2023-05-17T18:07:54.318Z,101410.09
2023-05-17T18:12:51.713Z,101417.44
2023-05-17T18:17:51.282Z,101405.44
2023-05-17T18:22:47.841Z,101415.06
2023-05-17T18:27:44.473Z,101408.78
2023-05-17T18:32:41.286Z,101421.75
2023-05-17T18:37:37.790Z,101428.59
2023-05-17T18:42:34.226Z,101431.13
2023-05-17T18:47:30.741Z,101433.44
2023-05-17T18:52:27.165Z,101428.94
2023-05-17T18:57:23.570Z,101439.66
2023-05-17T19:02:19.991Z,101442.13
2023-05-17T19:07:16.517Z,101444.03
2023-05-17T19:12:12.932Z,101452.81
2023-05-17T19:17:10.255Z,101461.78
2023-05-17T19:22:06.975Z,101461.31
2023-05-17T19:27:03.636Z,101470.31
2023-05-17T19:32:00.193Z,101456.63
2023-05-17T19:36:57.381Z,101465.28
2023-05-17T19:41:53.789Z,101465.88
2023-05-17T19:46:50.497Z,101468.97
2023-05-17T19:51:48.132Z,101459.81
2023-05-17T19:56:44.800Z,101466.72
2023-05-17T20:01:41.317Z,101473.31
2023-05-17T20:06:37.921Z,101461.78
2023-05-17T20:11:34.603Z,101468.19
2023-05-17T20:16:31.215Z,101474.94
2023-05-17T20:21:29.244Z,101483.13
2023-05-17T20:26:27.052Z,101487.09
2023-05-17T20:31:23.492Z,101477.44
2023-05-17T20:36:20.027Z,101490.94
2023-05-17T20:41:16.722Z,101490.38
2023-05-17T20:46:13.939Z,101494.28
2023-05-17T20:51:10.757Z,101482.28
2023-05-17T20:56:07.456Z,101495.13
2023-05-17T21:01:04.035Z,101499.03
2023-05-17T21:06:01.615Z,101493.72
2023-05-17T21:10:58.712Z,101493.31
2023-05-17T21:15:55.879Z,101493.91
2023-05-17T21:20:52.707Z,101501.38
2023-05-17T21:25:49.265Z,101498.78
2023-05-17T21:30:45.674Z,101491.38
2023-05-17T21:35:42.068Z,101496.09
2023-05-17T21:40:39.077Z,101500.75
2023-05-17T21:45:35.619Z,101506.41
2023-05-17T21:50:32.278Z,101507.97
2023-05-17T21:55:36.482Z,101511.09
2023-05-17T22:00:43.393Z,101509.50
2023-05-17T22:05:40.013Z,101507.94
2023-05-17T22:10:37.040Z,101505.84
2023-05-17T22:15:34.809Z,101502.47
2023-05-17T22:20:31.472Z,101508.19
2023-05-17T22:25:28.215Z,101512.75
2023-05-17T22:30:24.606Z,101525.47
2023-05-17T22:35:21.114Z,101515.13
2023-05-17T22:40:17.804Z,101517.00
2023-05-17T22:45:14.498Z,101520.72
2023-05-17T22:50:12.037Z,101519.31
2023-05-17T22:55:10.698Z,101525.75
2023-05-17T23:00:09.288Z,101535.84
2023-05-17T23:05:06.077Z,101537.75
2023-05-17T23:10:07.159Z,101532.78
2023-05-17T23:15:05.095Z,101530.59
2023-05-17T23:20:06.820Z,101532.81
2023-05-17T23:25:03.386Z,101537.34
2023-05-17T23:30:01.088Z,101538.63
2023-05-17T23:34:58.552Z,101531.34
2023-05-17T23:39:54.955Z,101538.06
2023-05-17T23:44:51.325Z,101531.19
2023-05-17T23:49:47.764Z,101523.44
2023-05-17T23:54:45.018Z,101519.78
2023-05-17T23:59:42.082Z,101527.47
